Time;durP1;ratioP1;P1;durP2;ratioP2;P2;SDS_P1;SDS_P2;PMS_P1;PMS_P2;Temp;Humidity;BMP_temperature;BMP_pressure;BME280_temperature;BME280_humidity;BME280_pressure;Samples;Min_cycle;Max_cycle;Signal;HPM_P1;HPM_P2
2023/01/27 00:00:21;;;;;;;6.85;4.25;;;;;;;;;;5052268;28;20497;-66
2023/01/27 00:02:48;;;;;;;10.32;4.50;;;;;;;;;;5052720;28;20132;-66
2023/01/27 00:05:15;;;;;;;7.43;4.18;;;;;;;;;;5052595;28;20047;-66
2023/01/27 00:07:45;;;;;;;6.57;4.38;;;;;;;;;;5052089;28;20056;-66
2023/01/27 00:10:16;;;;;;;8.10;4.60;;;;;;;;;;5052528;28;20077;-66
2023/01/27 00:15:29;;;;;;;9.07;4.25;;;;;;;;;;5052333;28;20049;-66
2023/01/27 00:17:55;;;;;;;9.40;5.17;;;;;;;;;;5052468;28;20107;-67
2023/01/27 00:26:05;;;;;;;9.02;4.70;;;;;;;;;;5051963;28;20048;-66
2023/01/27 00:28:35;;;;;;;8.30;4.55;;;;;;;;;;5051831;28;20045;-66
2023/01/27 00:31:01;;;;;;;7.60;4.30;;;;;;;;;;5050989;28;20045;-66
2023/01/27 00:33:28;;;;;;;8.55;4.95;;;;;;;;;;5052172;28;20049;-66
2023/01/27 00:36:15;;;;;;;6.35;4.60;;;;;;;;;;5052107;28;20132;-66
2023/01/27 00:38:41;;;;;;;8.10;4.72;;;;;;;;;;5051968;28;20060;-66
2023/01/27 00:41:20;;;;;;;8.52;5.05;;;;;;;;;;5040204;28;20050;-66
2023/01/27 00:43:47;;;;;;;9.02;5.28;;;;;;;;;;5051397;28;20398;-66
2023/01/27 00:46:13;;;;;;;10.57;5.75;;;;;;;;;;5051880;28;20094;-66
2023/01/27 00:48:40;;;;;;;9.27;5.75;;;;;;;;;;5051854;28;20055;-66
2023/01/27 00:51:06;;;;;;;13.35;6.15;;;;;;;;;;5051665;28;20540;-66
2023/01/27 00:53:33;;;;;;;9.38;5.93;;;;;;;;;;5051530;28;20055;-66
2023/01/27 00:55:59;;;;;;;10.07;5.25;;;;;;;;;;5051586;28;20095;-66
2023/01/27 00:58:26;;;;;;;8.68;5.40;;;;;;;;;;5051660;28;20421;-66
2023/01/27 01:00:53;;;;;;;7.50;4.60;;;;;;;;;;5051557;28;20073;-66
2023/01/27 01:03:20;;;;;;;7.03;4.20;;;;;;;;;;5051710;28;20063;-66
2023/01/27 01:05:47;;;;;;;8.68;4.65;;;;;;;;;;5051702;28;20048;-66
2023/01/27 01:08:13;;;;;;;6.70;4.53;;;;;;;;;;5051349;28;20507;-66
2023/01/27 01:10:40;;;;;;;7.53;4.68;;;;;;;;;;5051362;28;20045;-66
2023/01/27 01:13:07;;;;;;;8.88;5.20;;;;;;;;;;5051565;28;20052;-66
2023/01/27 01:15:34;;;;;;;6.28;3.92;;;;;;;;;;5051705;28;20048;-66
2023/01/27 01:18:01;;;;;;;8.60;4.27;;;;;;;;;;5051678;28;20056;-66
2023/01/27 01:20:27;;;;;;;8.48;5.03;;;;;;;;;;5052487;28;20049;-66
2023/01/27 01:22:54;;;;;;;9.32;5.15;;;;;;;;;;5055174;28;20523;-66
2023/01/27 01:25:20;;;;;;;7.97;4.68;;;;;;;;;;5054339;28;20057;-66
2023/01/27 01:27:46;;;;;;;5.78;4.45;;;;;;;;;;5055551;28;20049;-66
2023/01/27 01:30:13;;;;;;;6.63;4.75;;;;;;;;;;5055443;28;20428;-66
2023/01/27 01:32:40;;;;;;;6.38;4.53;;;;;;;;;;5055282;28;20103;-67
2023/01/27 01:35:06;;;;;;;5.78;4.72;;;;;;;;;;5055433;28;20056;-66
2023/01/27 01:37:33;;;;;;;8.07;4.70;;;;;;;;;;5055367;28;20136;-66
2023/01/27 01:39:59;;;;;;;8.30;5.07;;;;;;;;;;5055569;28;20053;-66
2023/01/27 01:42:25;;;;;;;10.57;4.90;;;;;;;;;;5055374;28;20051;-66
2023/01/27 01:45:12;;;;;;;6.97;4.53;;;;;;;;;;5054995;28;20504;-66
2023/01/27 01:47:38;;;;;;;6.43;4.15;;;;;;;;;;5054901;28;20049;-66
2023/01/27 01:50:05;;;;;;;6.10;4.38;;;;;;;;;;5054739;28;20067;-66
2023/01/27 01:52:31;;;;;;;9.18;4.60;;;;;;;;;;5054878;28;20045;-66
2023/01/27 01:54:57;;;;;;;7.20;4.68;;;;;;;;;;5054983;28;20128;-66
2023/01/27 01:57:33;;;;;;;7.65;4.53;;;;;;;;;;5054919;28;20492;-66
2023/01/27 02:00:02;;;;;;;6.40;4.30;;;;;;;;;;5054742;28;20049;-66
2023/01/27 02:02:30;;;;;;;7.28;4.45;;;;;;;;;;5054714;28;20060;-66
2023/01/27 02:05:00;;;;;;;7.65;4.60;;;;;;;;;;5054889;28;20132;-66
2023/01/27 02:07:32;;;;;;;7.25;5.05;;;;;;;;;;5054921;28;20053;-66
2023/01/27 02:09:59;;;;;;;9.68;4.95;;;;;;;;;;5054570;28;20053;-66
2023/01/27 02:12:25;;;;;;;6.47;4.75;;;;;;;;;;5054455;28;20131;-66
2023/01/27 02:14:52;;;;;;;7.63;4.85;;;;;;;;;;5054489;28;20404;-66
2023/01/27 02:17:19;;;;;;;7.15;4.90;;;;;;;;;;5054618;28;20036;-66
2023/01/27 02:20:01;;;;;;;6.18;4.35;;;;;;;;;;5054447;28;20501;-66
2023/01/27 02:22:34;;;;;;;7.68;5.18;;;;;;;;;;5054311;28;20471;-66
2023/01/27 02:25:06;;;;;;;6.00;4.88;;;;;;;;;;5054384;28;20049;-66
2023/01/27 02:27:32;;;;;;;8.98;5.53;;;;;;;;;;5054218;28;20458;-66
2023/01/27 02:29:59;;;;;;;12.50;7.30;;;;;;;;;;5054366;28;20051;-66
2023/01/27 02:32:25;;;;;;;12.48;6.75;;;;;;;;;;5054152;28;20137;-66
2023/01/27 02:34:53;;;;;;;9.18;5.95;;;;;;;;;;5053979;28;20044;-66
2023/01/27 02:37:20;;;;;;;10.20;6.20;;;;;;;;;;5054373;28;20049;-66
2023/01/27 02:39:48;;;;;;;10.85;6.15;;;;;;;;;;5054168;28;20045;-66
2023/01/27 02:42:16;;;;;;;10.30;5.32;;;;;;;;;;5054237;28;20067;-66
2023/01/27 02:44:42;;;;;;;7.80;5.00;;;;;;;;;;5054142;28;20052;-66
2023/01/27 02:47:09;;;;;;;6.82;4.80;;;;;;;;;;5047127;28;20049;-67
2023/01/27 02:49:35;;;;;;;10.25;5.50;;;;;;;;;;5053811;28;20055;-66
2023/01/27 02:52:01;;;;;;;6.05;4.72;;;;;;;;;;5054054;28;20049;-66
2023/01/27 02:54:28;;;;;;;6.65;4.90;;;;;;;;;;5053635;28;20132;-66
2023/01/27 02:56:55;;;;;;;6.43;5.07;;;;;;;;;;5053648;28;20041;-66
2023/01/27 02:59:21;;;;;;;6.80;4.78;;;;;;;;;;5053567;28;20488;-66
2023/01/27 03:01:48;;;;;;;7.40;4.35;;;;;;;;;;5053696;28;20136;-66
2023/01/27 03:04:14;;;;;;;5.30;3.65;;;;;;;;;;5053768;28;20132;-66
2023/01/27 03:06:41;;;;;;;5.18;3.97;;;;;;;;;;5053417;28;20057;-66
2023/01/27 03:09:07;;;;;;;6.00;4.13;;;;;;;;;;5053545;28;20071;-66
2023/01/27 03:14:19;;;;;;;6.20;4.05;;;;;;;;;;5053469;28;20059;-66
2023/01/27 03:19:30;;;;;;;8.20;3.88;;;;;;;;;;5053303;28;20048;-66
2023/01/27 03:21:56;;;;;;;6.72;4.00;;;;;;;;;;5053195;28;20061;-66
2023/01/27 03:24:22;;;;;;;6.00;3.78;;;;;;;;;;5053089;28;20049;-66
2023/01/27 03:26:49;;;;;;;5.75;4.00;;;;;;;;;;5053161;28;20592;-66
2023/01/27 03:32:00;;;;;;;5.45;3.90;;;;;;;;;;5053013;28;20067;-65
2023/01/27 03:34:27;;;;;;;4.07;3.60;;;;;;;;;;5053094;28;20061;-66
2023/01/27 03:47:53;;;;;;;5.43;3.67;;;;;;;;;;5052651;28;20480;-66
2023/01/27 03:50:29;;;;;;;6.03;3.47;;;;;;;;;;5052676;28;20045;-66
2023/01/27 03:53:02;;;;;;;6.72;3.55;;;;;;;;;;5052865;28;20381;-66
2023/01/27 03:55:29;;;;;;;3.53;3.20;;;;;;;;;;5052739;28;20055;-66
2023/01/27 03:57:56;;;;;;;4.28;3.42;;;;;;;;;;5052818;28;20045;-66
2023/01/27 04:00:22;;;;;;;4.40;3.17;;;;;;;;;;5052447;28;20049;-66
2023/01/27 04:08:18;;;;;;;5.82;3.33;;;;;;;;;;5052723;28;20127;-66
2023/01/27 04:11:53;;;;;;;6.00;3.75;;;;;;;;;;5052702;28;20053;-66
2023/01/27 04:13:31;;;;;;;5.68;3.55;;;;;;;;;;5052081;28;20139;-66
2023/01/27 04:15:58;;;;;;;5.43;3.35;;;;;;;;;;5052179;28;20045;-66
2023/01/27 04:18:24;;;;;;;5.38;4.03;;;;;;;;;;5052449;28;20052;-65
2023/01/27 04:20:50;;;;;;;5.53;3.70;;;;;;;;;;5052314;28;20045;-66
2023/01/27 04:23:17;;;;;;;4.25;3.28;;;;;;;;;;5052009;28;20059;-66
2023/01/27 04:25:43;;;;;;;6.95;3.58;;;;;;;;;;5051919;28;20055;-65
2023/01/27 04:28:09;;;;;;;4.22;3.55;;;;;;;;;;5052172;28;20055;-66
2023/01/27 04:30:36;;;;;;;5.45;4.05;;;;;;;;;;5051808;28;20143;-65
2023/01/27 04:33:03;;;;;;;5.22;3.78;;;;;;;;;;5052115;28;20045;-66
2023/01/27 04:35:30;;;;;;;3.60;3.08;;;;;;;;;;5050813;28;20053;-66
2023/01/27 04:38:04;;;;;;;5.43;3.70;;;;;;;;;;5050906;28;20065;-66
2023/01/27 04:40:31;;;;;;;5.90;3.80;;;;;;;;;;5052091;28;20403;-66
2023/01/27 04:42:57;;;;;;;5.78;3.20;;;;;;;;;;5051700;28;20041;-66
2023/01/27 04:45:24;;;;;;;5.15;3.60;;;;;;;;;;5051898;28;20048;-66
2023/01/27 04:47:50;;;;;;;7.75;3.50;;;;;;;;;;5051802;28;20114;-66
2023/01/27 04:50:17;;;;;;;4.05;3.42;;;;;;;;;;5051865;28;20465;-66
2023/01/27 04:52:44;;;;;;;4.88;3.47;;;;;;;;;;5051554;28;20500;-66
2023/01/27 04:55:10;;;;;;;4.35;3.40;;;;;;;;;;5050564;28;20084;-66
2023/01/27 04:57:37;;;;;;;5.57;3.60;;;;;;;;;;5051837;28;20048;-66
2023/01/27 05:00:04;;;;;;;6.95;3.80;;;;;;;;;;5051711;28;20126;-65
2023/01/27 05:02:31;;;;;;;4.40;3.40;;;;;;;;;;5051537;28;20059;-65
2023/01/27 05:04:57;;;;;;;4.10;3.50;;;;;;;;;;5051766;28;20700;-66
2023/01/27 05:07:24;;;;;;;4.07;3.40;;;;;;;;;;5051489;28;20098;-66
2023/01/27 05:09:50;;;;;;;6.18;3.90;;;;;;;;;;5051325;28;20059;-66
2023/01/27 05:12:16;;;;;;;4.13;3.20;;;;;;;;;;5051587;28;20045;-66
2023/01/27 05:14:43;;;;;;;5.90;3.78;;;;;;;;;;5051352;28;20060;-66
2023/01/27 05:17:09;;;;;;;6.35;3.92;;;;;;;;;;5051291;28;20041;-65
2023/01/27 05:19:35;;;;;;;4.97;4.03;;;;;;;;;;5051467;28;20052;-65
2023/01/27 05:22:02;;;;;;;5.47;3.90;;;;;;;;;;5051161;28;20135;-66
2023/01/27 05:24:29;;;;;;;4.72;4.22;;;;;;;;;;5051274;28;20045;-66
2023/01/27 05:26:56;;;;;;;4.50;4.10;;;;;;;;;;5051521;28;20053;-66
2023/01/27 05:29:22;;;;;;;5.70;4.35;;;;;;;;;;5051152;28;20052;-66
2023/01/27 05:31:49;;;;;;;6.90;4.68;;;;;;;;;;5051230;28;20049;-66
2023/01/27 05:34:15;;;;;;;5.35;4.55;;;;;;;;;;5051612;28;20045;-66
2023/01/27 05:36:42;;;;;;;5.72;5.07;;;;;;;;;;5051280;28;20067;-65
2023/01/27 05:39:09;;;;;;;6.18;4.80;;;;;;;;;;5050288;28;20059;-66
2023/01/27 05:41:35;;;;;;;5.35;4.70;;;;;;;;;;5050887;28;20405;-66
2023/01/27 05:44:02;;;;;;;5.30;4.80;;;;;;;;;;5040737;28;20504;-65
2023/01/27 05:46:30;;;;;;;5.60;5.07;;;;;;;;;;5051115;28;20076;-66
2023/01/27 05:49:01;;;;;;;5.25;4.80;;;;;;;;;;5050984;28;20057;-66
2023/01/27 05:51:28;;;;;;;5.97;5.15;;;;;;;;;;5036924;28;20522;-65
2023/01/27 05:53:55;;;;;;;5.25;4.55;;;;;;;;;;5051220;28;20052;-66
2023/01/27 05:56:22;;;;;;;6.55;5.35;;;;;;;;;;5051092;28;20128;-66
2023/01/27 05:58:48;;;;;;;5.90;5.07;;;;;;;;;;5050955;28;20073;-66
2023/01/27 06:01:16;;;;;;;5.90;5.30;;;;;;;;;;5051113;28;20405;-66
2023/01/27 06:03:42;;;;;;;;;;;;;;;;;;5051633;28;20140;-66
2023/01/27 06:06:09;;;;;;;5.75;5.03;;;;;;;;;;5051466;28;19962;-66
2023/01/27 06:08:36;;;;;;;7.60;5.40;;;;;;;;;;5054816;28;20048;-66
2023/01/27 06:11:03;;;;;;;7.75;5.65;;;;;;;;;;5054586;28;20041;-66
2023/01/27 06:13:30;;;;;;;6.22;5.22;;;;;;;;;;5054776;28;20132;-66
2023/01/27 06:15:56;;;;;;;7.22;5.53;;;;;;;;;;5054773;28;20037;-66
2023/01/27 06:18:23;;;;;;;9.02;5.72;;;;;;;;;;5054542;28;20572;-66
2023/01/27 06:20:49;;;;;;;7.07;5.63;;;;;;;;;;5054269;28;20493;-66
2023/01/27 06:23:16;;;;;;;6.78;5.82;;;;;;;;;;5054249;28;20061;-66
2023/01/27 06:25:46;;;;;;;6.70;5.80;;;;;;;;;;5054406;28;20053;-66
2023/01/27 06:28:13;;;;;;;6.38;5.50;;;;;;;;;;5054443;28;20045;-66
2023/01/27 06:30:54;;;;;;;6.40;5.53;;;;;;;;;;5054087;28;20056;-66
2023/01/27 06:33:21;;;;;;;6.65;5.82;;;;;;;;;;5054171;28;20045;-66
2023/01/27 06:35:47;;;;;;;9.18;6.53;;;;;;;;;;5054044;28;20041;-66
2023/01/27 06:38:14;;;;;;;6.90;6.25;;;;;;;;;;5054333;28;20045;-66
2023/01/27 06:40:41;;;;;;;7.32;6.45;;;;;;;;;;5054263;28;20049;-66
2023/01/27 06:43:11;;;;;;;7.10;6.40;;;;;;;;;;5053938;28;20091;-66
2023/01/27 06:45:38;;;;;;;8.48;6.65;;;;;;;;;;5054147;28;20053;-66
2023/01/27 06:48:04;;;;;;;7.32;6.15;;;;;;;;;;5054120;28;20052;-66
2023/01/27 06:50:31;;;;;;;7.68;6.90;;;;;;;;;;5054035;28;20132;-65
2023/01/27 06:53:01;;;;;;;8.25;6.75;;;;;;;;;;5053705;28;20049;-66
2023/01/27 06:55:28;;;;;;;7.57;6.78;;;;;;;;;;5053758;28;20048;-66
2023/01/27 06:57:54;;;;;;;7.90;6.95;;;;;;;;;;5054108;28;20049;-66
2023/01/27 07:00:21;;;;;;;8.93;7.60;;;;;;;;;;5053568;28;20136;-66
2023/01/27 07:02:47;;;;;;;8.45;7.40;;;;;;;;;;5053601;28;20056;-66
2023/01/27 07:05:14;;;;;;;8.95;7.88;;;;;;;;;;5052234;28;20147;-66
2023/01/27 07:07:40;;;;;;;8.95;7.00;;;;;;;;;;5053526;28;20439;-66
2023/01/27 07:10:07;;;;;;;7.53;6.80;;;;;;;;;;5053262;28;20059;-66
2023/01/27 07:12:37;;;;;;;7.80;7.00;;;;;;;;;;5053474;28;20480;-65
2023/01/27 07:15:04;;;;;;;8.48;6.53;;;;;;;;;;5053514;28;20398;-67
2023/01/27 07:17:31;;;;;;;7.53;6.82;;;;;;;;;;5038405;28;20084;-66
2023/01/27 07:19:58;;;;;;;7.65;6.85;;;;;;;;;;5053176;28;20057;-66
2023/01/27 07:22:24;;;;;;;8.15;7.35;;;;;;;;;;5053184;28;20059;-66
2023/01/27 07:24:51;;;;;;;7.93;7.13;;;;;;;;;;5053476;28;20143;-66
2023/01/27 07:27:17;;;;;;;8.65;6.88;;;;;;;;;;5053348;28;20507;-66
2023/01/27 07:29:43;;;;;;;8.25;7.25;;;;;;;;;;5053130;28;20045;-66
2023/01/27 07:32:10;;;;;;;7.90;7.05;;;;;;;;;;5053428;28;20393;-66
2023/01/27 07:34:36;;;;;;;8.25;7.45;;;;;;;;;;5049948;28;20376;-66
2023/01/27 07:37:04;;;;;;;8.30;7.50;;;;;;;;;;5047994;28;20054;-66
2023/01/27 07:39:32;;;;;;;7.95;7.13;;;;;;;;;;5032285;28;20038;-66
2023/01/27 07:42:00;;;;;;;9.15;7.63;;;;;;;;;;5046525;28;20037;-66
2023/01/27 07:44:27;;;;;;;8.90;7.65;;;;;;;;;;5050869;28;20049;-66
2023/01/27 07:46:53;;;;;;;8.02;7.30;;;;;;;;;;5032356;28;20045;-66
2023/01/27 07:49:20;;;;;;;10.32;8.48;;;;;;;;;;5032499;28;20068;-66
2023/01/27 07:51:46;;;;;;;9.18;8.02;;;;;;;;;;5031710;28;20041;-67
2023/01/27 07:54:12;;;;;;;9.10;8.20;;;;;;;;;;5031429;28;20049;-67
2023/01/27 07:56:39;;;;;;;11.88;8.15;;;;;;;;;;5045372;28;20055;-67
2023/01/27 07:59:05;;;;;;;9.75;8.40;;;;;;;;;;5052023;28;20518;-66
2023/01/27 08:01:32;;;;;;;9.68;8.68;;;;;;;;;;5052452;28;20060;-68
2023/01/27 08:03:59;;;;;;;9.60;8.63;;;;;;;;;;5052703;28;20079;-67
2023/01/27 08:06:25;;;;;;;10.38;9.32;;;;;;;;;;5035535;28;20509;-68
2023/01/27 08:08:51;;;;;;;10.60;9.40;;;;;;;;;;5032158;28;20391;-67
2023/01/27 08:11:18;;;;;;;12.48;10.40;;;;;;;;;;5030698;28;20055;-68
2023/01/27 08:13:44;;;;;;;12.10;10.93;;;;;;;;;;5032049;28;20507;-67
2023/01/27 08:16:12;;;;;;;12.93;10.40;;;;;;;;;;5048305;28;20481;-67
2023/01/27 08:18:38;;;;;;;11.02;9.93;;;;;;;;;;5052504;28;20041;-65
2023/01/27 08:21:06;;;;;;;12.77;10.32;;;;;;;;;;5049826;28;20049;-67
2023/01/27 08:23:33;;;;;;;12.63;10.38;;;;;;;;;;5034440;28;20080;-67
2023/01/27 08:26:00;;;;;;;13.82;11.07;;;;;;;;;;5039364;28;20152;-66
2023/01/27 08:28:28;;;;;;;13.73;11.23;;;;;;;;;;5050791;28;20055;-66
2023/01/27 08:31:01;;;;;;;13.52;11.85;;;;;;;;;;5051820;28;20045;-66
2023/01/27 08:33:28;;;;;;;13.88;10.98;;;;;;;;;;5051856;28;20045;-65
2023/01/27 08:35:54;;;;;;;14.02;11.40;;;;;;;;;;5044922;28;20049;-66
2023/01/27 08:38:20;;;;;;;12.73;11.40;;;;;;;;;;5037279;28;20045;-67
2023/01/27 08:40:47;;;;;;;13.00;11.35;;;;;;;;;;5044466;28;20545;-67
2023/01/27 08:43:15;;;;;;;13.38;11.88;;;;;;;;;;5032427;28;20072;-66
2023/01/27 08:45:41;;;;;;;15.23;12.02;;;;;;;;;;5038662;28;20135;-66
2023/01/27 08:48:08;;;;;;;14.05;12.50;;;;;;;;;;5051684;28;20053;-67
2023/01/27 08:50:37;;;;;;;14.43;12.27;;;;;;;;;;5051824;28;20041;-66
2023/01/27 08:53:03;;;;;;;16.15;12.73;;;;;;;;;;5051906;28;20051;-67
2023/01/27 08:55:31;;;;;;;14.65;12.60;;;;;;;;;;5044757;28;20083;-67
2023/01/27 08:57:57;;;;;;;16.27;13.75;;;;;;;;;;5031220;28;20486;-66
2023/01/27 09:00:25;;;;;;;15.10;13.15;;;;;;;;;;5039638;28;20212;-66
2023/01/27 09:02:51;;;;;;;16.33;13.63;;;;;;;;;;5051804;28;20449;-67
2023/01/27 09:05:18;;;;;;;16.00;14.02;;;;;;;;;;5037741;28;20413;-67
2023/01/27 09:07:45;;;;;;;15.18;13.57;;;;;;;;;;5029744;28;20386;-66
2023/01/27 09:10:12;;;;;;;14.80;13.30;;;;;;;;;;5042850;28;20049;-66
2023/01/27 09:12:45;;;;;;;14.95;13.35;;;;;;;;;;5025164;28;20401;-66
2023/01/27 09:15:12;;;;;;;15.90;13.20;;;;;;;;;;5051182;28;20049;-66
2023/01/27 09:17:39;;;;;;;17.23;14.35;;;;;;;;;;5051180;28;20400;-66
2023/01/27 09:20:06;;;;;;;14.82;13.23;;;;;;;;;;5050917;28;20131;-66
2023/01/27 09:22:32;;;;;;;16.05;13.65;;;;;;;;;;5050626;28;20536;-66
2023/01/27 09:24:59;;;;;;;15.27;13.52;;;;;;;;;;5051238;28;20132;-67
2023/01/27 09:27:25;;;;;;;16.65;13.57;;;;;;;;;;5050730;28;20529;-67
2023/01/27 09:30:05;;;;;;;15.23;12.98;;;;;;;;;;5050771;28;20055;-67
2023/01/27 09:32:31;;;;;;;15.98;13.98;;;;;;;;;;5050630;28;20132;-67
2023/01/27 09:34:58;;;;;;;16.10;14.20;;;;;;;;;;5050982;28;20047;-66
2023/01/27 09:37:24;;;;;;;17.50;13.80;;;;;;;;;;5050916;28;20052;-68
2023/01/27 09:39:55;;;;;;;15.18;13.38;;;;;;;;;;5050822;28;20045;-66
2023/01/27 09:42:40;;;;;;;14.15;12.75;;;;;;;;;;5053447;28;20047;-66
2023/01/27 09:45:16;;;;;;;15.18;12.95;;;;;;;;;;5054891;28;20159;-67
2023/01/27 09:48:00;;;;;;;13.65;12.25;;;;;;;;;;5054568;28;20132;-67
2023/01/27 09:50:28;;;;;;;15.32;12.00;;;;;;;;;;5054482;28;20064;-65
2023/01/27 09:53:13;;;;;;;13.60;12.15;;;;;;;;;;5054507;28;20049;-64
2023/01/27 09:55:39;;;;;;;14.48;12.65;;;;;;;;;;5053326;28;20045;-66
2023/01/27 09:58:06;;;;;;;16.00;11.50;;;;;;;;;;5052398;28;20473;-66
2023/01/27 10:01:05;;;;;;;13.10;11.80;;;;;;;;;;5046296;28;20049;-67
2023/01/27 10:03:49;;;;;;;12.27;10.35;;;;;;;;;;5030146;28;20142;-67
2023/01/27 10:06:35;;;;;;;12.38;9.55;;;;;;;;;;5047341;28;20063;-66
2023/01/27 10:09:07;;;;;;;11.63;10.13;;;;;;;;;;5054395;28;20049;-70
2023/01/27 10:11:51;;;;;;;13.27;10.18;;;;;;;;;;5053899;28;20424;-66
2023/01/27 10:14:24;;;;;;;11.10;9.85;;;;;;;;;;5053982;28;20053;-67
2023/01/27 10:17:04;;;;;;;11.75;9.55;;;;;;;;;;5054090;28;20048;-67
2023/01/27 10:19:51;;;;;;;12.10;10.60;;;;;;;;;;5054077;28;20132;-66
2023/01/27 10:22:29;;;;;;;12.88;11.55;;;;;;;;;;5052073;28;20143;-67
2023/01/27 10:24:57;;;;;;;;;;;;;;;;;;5054524;28;20055;-66
2023/01/27 10:27:23;;;;;;;;;;;;;;;;;;5054124;28;19927;-69
2023/01/27 10:29:49;;;;;;;13.15;11.13;;;;;;;;;;5053808;28;20281;-67
2023/01/27 10:32:16;;;;;;;12.88;9.20;;;;;;;;;;5034626;28;20053;-65
2023/01/27 10:34:47;;;;;;;11.48;8.38;;;;;;;;;;5050008;28;20053;-65
2023/01/27 10:37:27;;;;;;;12.20;9.30;;;;;;;;;;5053673;28;20045;-67
2023/01/27 10:39:59;;;;;;;9.77;7.65;;;;;;;;;;5037940;28;20052;-67
2023/01/27 10:42:32;;;;;;;8.88;5.50;;;;;;;;;;5053817;28;20068;-66
2023/01/27 10:44:58;;;;;;;5.53;4.10;;;;;;;;;;5053668;28;20049;-66
2023/01/27 10:47:25;;;;;;;7.15;4.47;;;;;;;;;;5037055;28;20060;-66
2023/01/27 10:49:56;;;;;;;10.73;7.15;;;;;;;;;;5053627;28;20041;-67
2023/01/27 10:52:25;;;;;;;12.05;9.35;;;;;;;;;;5053379;28;20053;-66
2023/01/27 10:54:58;;;;;;;11.00;8.30;;;;;;;;;;5053483;28;20049;-68
2023/01/27 10:57:32;;;;;;;8.68;7.78;;;;;;;;;;5051321;28;20057;-66
2023/01/27 10:59:58;;;;;;;9.63;6.95;;;;;;;;;;5045390;28;20132;-66
2023/01/27 11:03:05;;;;;;;7.75;6.00;;;;;;;;;;5042693;28;20053;-67
2023/01/27 11:05:37;;;;;;;7.05;4.63;;;;;;;;;;5053157;28;20045;-66
2023/01/27 11:08:09;;;;;;;7.22;4.80;;;;;;;;;;5053276;28;20128;-67
2023/01/27 11:10:37;;;;;;;5.53;4.47;;;;;;;;;;5052839;28;20045;-67
2023/01/27 11:13:04;;;;;;;7.15;4.40;;;;;;;;;;5053254;28;20048;-66
2023/01/27 11:15:32;;;;;;;6.55;4.47;;;;;;;;;;5052934;28;20131;-67
2023/01/27 11:18:14;;;;;;;7.95;3.92;;;;;;;;;;5052784;28;20493;-67
2023/01/27 11:20:45;;;;;;;6.63;4.03;;;;;;;;;;5031778;28;20045;-68
2023/01/27 11:23:19;;;;;;;7.60;3.58;;;;;;;;;;5052797;28;20603;-67
2023/01/27 11:25:51;;;;;;;7.50;3.20;;;;;;;;;;5049505;28;20393;-66
2023/01/27 11:28:33;;;;;;;6.43;2.80;;;;;;;;;;5042970;28;20110;-67
2023/01/27 11:31:04;;;;;;;3.95;2.80;;;;;;;;;;5052732;28;20045;-66
2023/01/27 11:33:41;;;;;;;7.25;3.58;;;;;;;;;;5052475;28;20177;-66
2023/01/27 11:36:08;;;;;;;7.93;3.75;;;;;;;;;;5052428;28;20087;-66
2023/01/27 11:38:35;;;;;;;13.57;8.75;;;;;;;;;;5052695;28;20132;-66
2023/01/27 11:41:02;;;;;;;17.98;11.68;;;;;;;;;;5052382;28;20060;-67
2023/01/27 11:43:28;;;;;;;19.38;12.60;;;;;;;;;;5052298;28;20507;-68
2023/01/27 11:45:59;;;;;;;15.85;10.30;;;;;;;;;;5052432;28;20144;-67
2023/01/27 11:48:29;;;;;;;13.63;8.65;;;;;;;;;;5052212;28;20087;-67
2023/01/27 11:50:56;;;;;;;11.18;8.18;;;;;;;;;;5052061;28;20041;-67
2023/01/27 11:53:27;;;;;;;9.05;6.93;;;;;;;;;;5037545;28;20037;-67
2023/01/27 11:55:59;;;;;;;9.27;5.20;;;;;;;;;;5052077;28;20049;-67
2023/01/27 11:58:37;;;;;;;10.40;6.05;;;;;;;;;;5050101;28;20051;-67
2023/01/27 12:01:14;;;;;;;8.80;6.00;;;;;;;;;;5052253;28;20136;-67
2023/01/27 12:03:59;;;;;;;10.23;6.10;;;;;;;;;;5051487;28;20485;-69
2023/01/27 12:06:31;;;;;;;5.93;4.72;;;;;;;;;;5049907;28;20570;-67
2023/01/27 12:08:58;;;;;;;6.70;5.10;;;;;;;;;;5034516;28;20497;-67
2023/01/27 12:11:28;;;;;;;8.63;5.68;;;;;;;;;;5048999;28;20052;-69
2023/01/27 12:14:02;;;;;;;7.93;5.47;;;;;;;;;;5040903;28;20045;-66
2023/01/27 12:16:42;;;;;;;6.68;4.90;;;;;;;;;;5051662;28;20080;-65
2023/01/27 12:19:14;;;;;;;8.82;5.32;;;;;;;;;;5051776;28;20568;-65
2023/01/27 12:21:45;;;;;;;6.95;5.10;;;;;;;;;;5051408;28;20055;-66
2023/01/27 12:24:19;;;;;;;8.32;5.40;;;;;;;;;;5051711;28;20083;-66
2023/01/27 12:26:46;;;;;;;8.98;4.97;;;;;;;;;;5051805;28;20056;-65
2023/01/27 12:29:15;;;;;;;5.90;4.22;;;;;;;;;;5052072;28;20048;-68
2023/01/27 12:31:44;;;;;;;11.27;4.55;;;;;;;;;;5051192;28;20055;-68
2023/01/27 12:34:23;;;;;;;8.60;4.82;;;;;;;;;;5049038;28;20045;-68
2023/01/27 12:36:50;;;;;;;7.82;4.55;;;;;;;;;;5031080;28;20672;-68
2023/01/27 12:39:26;;;;;;;6.22;4.20;;;;;;;;;;5036936;28;20053;-68
2023/01/27 12:41:53;;;;;;;5.82;3.90;;;;;;;;;;5051339;28;20056;-68
2023/01/27 12:44:22;;;;;;;6.07;3.90;;;;;;;;;;5050038;28;20075;-68
2023/01/27 12:46:57;;;;;;;9.75;5.13;;;;;;;;;;5046625;28;20045;-68
2023/01/27 12:49:29;;;;;;;7.10;4.70;;;;;;;;;;5048673;28;20055;-69
2023/01/27 12:51:55;;;;;;;7.90;5.82;;;;;;;;;;5051177;28;20436;-68
2023/01/27 12:54:23;;;;;;;8.77;6.03;;;;;;;;;;5037326;28;20457;-68
2023/01/27 12:56:49;;;;;;;;;;;;;;;;;;5049020;28;20045;-68
2023/01/27 12:59:17;;;;;;;8.68;5.93;;;;;;;;;;5029034;28;20047;-69
2023/01/27 13:01:55;;;;;;;7.43;5.28;;;;;;;;;;5033193;28;20056;-70
2023/01/27 13:04:25;;;;;;;9.27;5.38;;;;;;;;;;5051202;28;20053;-68
2023/01/27 13:06:58;;;;;;;6.72;4.97;;;;;;;;;;5050982;28;20060;-69
2023/01/27 13:09:26;;;;;;;9.30;5.55;;;;;;;;;;5051001;28;20492;-69
2023/01/27 13:11:54;;;;;;;8.80;5.00;;;;;;;;;;5050769;28;20568;-68
2023/01/27 13:14:20;;;;;;;7.63;4.85;;;;;;;;;;5041219;28;20426;-69
2023/01/27 13:16:54;;;;;;;7.47;5.10;;;;;;;;;;5037025;28;20411;-69
2023/01/27 13:19:25;;;;;;;7.38;4.93;;;;;;;;;;5055140;28;20074;-67
2023/01/27 13:21:52;;;;;;;10.93;5.10;;;;;;;;;;5044922;28;20560;-67
2023/01/27 13:24:23;;;;;;;11.10;4.82;;;;;;;;;;5042241;28;20479;-65
2023/01/27 13:26:49;;;;;;;6.80;4.43;;;;;;;;;;5054876;28;20492;-66
2023/01/27 13:29:27;;;;;;;8.90;5.43;;;;;;;;;;5054902;28;20107;-67
2023/01/27 13:32:17;;;;;;;9.40;4.40;;;;;;;;;;5054977;28;20131;-67
2023/01/27 13:34:43;;;;;;;7.55;4.38;;;;;;;;;;5052069;28;20497;-68
2023/01/27 13:37:09;;;;;;;7.55;4.70;;;;;;;;;;5043184;28;20439;-66
2023/01/27 13:39:44;;;;;;;8.23;4.68;;;;;;;;;;5054653;28;20080;-67
2023/01/27 13:42:10;;;;;;;9.23;4.53;;;;;;;;;;5045053;28;20053;-67
2023/01/27 13:44:36;;;;;;;6.28;4.03;;;;;;;;;;5036460;28;20045;-68
2023/01/27 13:47:08;;;;;;;6.55;4.40;;;;;;;;;;5036403;28;20053;-67
2023/01/27 13:49:39;;;;;;;8.43;4.05;;;;;;;;;;5032966;28;20515;-66
2023/01/27 13:52:06;;;;;;;6.65;4.18;;;;;;;;;;5034454;28;20053;-68
2023/01/27 13:54:33;;;;;;;9.25;4.35;;;;;;;;;;5033382;28;20128;-67
2023/01/27 13:57:25;;;;;;;9.38;3.95;;;;;;;;;;5032213;28;20063;-67
2023/01/27 14:00:02;;;;;;;17.63;9.30;;;;;;;;;;5034022;28;20524;-67
2023/01/27 14:02:37;;;;;;;12.37;7.17;;;;;;;;;;5034327;28;20055;-69
2023/01/27 14:05:19;;;;;;;8.15;3.78;;;;;;;;;;5034502;28;20055;-67
2023/01/27 14:08:00;;;;;;;7.53;3.50;;;;;;;;;;5021277;28;20045;-68
2023/01/27 14:10:26;;;;;;;7.47;3.20;;;;;;;;;;5032957;28;20136;-69
2023/01/27 14:13:01;;;;;;;9.10;3.83;;;;;;;;;;5034421;28;20128;-66
2023/01/27 14:15:28;;;;;;;7.25;3.78;;;;;;;;;;5034109;28;20053;-67
2023/01/27 14:18:07;;;;;;;10.53;3.57;;;;;;;;;;5034030;28;20041;-70
2023/01/27 14:20:43;;;;;;;4.95;3.60;;;;;;;;;;5034314;28;20049;-69
2023/01/27 14:23:25;;;;;;;7.25;4.07;;;;;;;;;;5033830;28;20064;-71
2023/01/27 14:25:54;;;;;;;8.70;3.33;;;;;;;;;;5031609;28;20077;-69
2023/01/27 14:28:29;;;;;;;6.80;3.53;;;;;;;;;;5020826;28;20045;-69
2023/01/27 14:31:05;;;;;;;6.68;3.20;;;;;;;;;;5050601;28;20080;-69
2023/01/27 14:34:07;;;;;;;6.43;4.00;;;;;;;;;;5053071;28;20361;-69
2023/01/27 14:36:49;;;;;;;7.28;3.60;;;;;;;;;;5051639;28;20064;-69
2023/01/27 14:39:18;;;;;;;7.97;4.90;;;;;;;;;;5052846;28;20045;-69
2023/01/27 14:42:00;;;;;;;17.48;12.68;;;;;;;;;;5054169;28;20059;-69
2023/01/27 14:44:27;;;;;;;27.70;19.42;;;;;;;;;;5053938;28;20084;-69
2023/01/27 14:47:13;;;;;;;23.20;17.58;;;;;;;;;;5054376;28;20144;-69
2023/01/27 14:49:46;;;;;;;11.45;6.07;;;;;;;;;;5054077;28;20131;-69
2023/01/27 14:52:45;;;;;;;8.55;5.40;;;;;;;;;;5054138;28;20128;-67
2023/01/27 14:55:24;;;;;;;7.50;4.55;;;;;;;;;;5031123;28;20047;-68
2023/01/27 14:57:50;;;;;;;10.52;5.43;;;;;;;;;;5054119;28;20049;-68
2023/01/27 15:00:35;;;;;;;7.47;4.82;;;;;;;;;;5053872;28;20059;-68
2023/01/27 15:03:21;;;;;;;8.13;5.00;;;;;;;;;;5035810;28;20448;-67
2023/01/27 15:06:06;;;;;;;6.43;4.40;;;;;;;;;;5044696;28;20059;-68
2023/01/27 15:08:42;;;;;;;9.32;4.63;;;;;;;;;;5040766;28;20052;-69
2023/01/27 15:11:26;;;;;;;8.60;4.95;;;;;;;;;;5046852;28;20504;-70
2023/01/27 15:13:53;;;;;;;8.98;4.55;;;;;;;;;;5032243;28;20049;-68
2023/01/27 15:16:25;;;;;;;7.78;3.90;;;;;;;;;;5052238;28;20045;-68
2023/01/27 15:18:51;;;;;;;5.43;3.85;;;;;;;;;;5052460;28;20102;-68
2023/01/27 15:21:32;;;;;;;8.57;4.10;;;;;;;;;;5053468;28;20120;-67
2023/01/27 15:24:16;;;;;;;9.35;4.28;;;;;;;;;;5031673;28;20045;-68
2023/01/27 15:26:43;;;;;;;10.52;5.00;;;;;;;;;;5036418;28;20501;-67